Time;durP1;ratioP1;P1;durP2;ratioP2;P2;SDS_P1;SDS_P2;PMS_P1;PMS_P2;Temp;Humidity;BMP_temperature;BMP_pressure;BME280_temperature;BME280_humidity;BME280_pressure;Samples;Min_cycle;Max_cycle;Signal;HPM_P1;HPM_P2
2023/12/10 00:00:55;;;;;;;;;6.33;5.33;;;;;10.69;76.94;100727.88;5077388;28;45267;-42
2023/12/10 00:03:21;;;;;;;;;2.33;1.00;;;;;10.69;76.76;100730.56;5077063;28;45920;-40
2023/12/10 00:05:47;;;;;;;;;7.00;1.67;;;;;10.68;77.02;100734.22;5077085;28;45281;-42
2023/12/10 00:08:12;;;;;;;;;11.00;3.67;;;;;10.67;77.16;100735.19;5077016;28;45418;-39
2023/12/10 00:10:38;;;;;;;;;6.00;3.00;;;;;10.67;77.08;100750.31;5076964;28;45239;-41
2023/12/10 00:13:03;;;;;;;;;7.33;1.00;;;;;10.66;76.95;100736.19;5076533;28;45471;-40
2023/12/10 00:15:28;;;;;;;;;6.00;2.67;;;;;10.65;77.16;100742.47;5075540;28;45376;-39
2023/12/10 00:17:54;;;;;;;;;10.67;2.33;;;;;10.65;77.18;100761.09;5076939;28;45281;-42
2023/12/10 00:20:19;;;;;;;;;2.00;2.00;;;;;10.65;77.60;100765.59;5077130;28;45419;-44
2023/12/10 00:22:46;;;;;;;;;3.00;2.00;;;;;10.63;77.34;100760.41;5076492;28;46171;-48
2023/12/10 00:25:12;;;;;;;;;6.33;3.67;;;;;10.62;77.90;100764.06;5076697;28;45370;-49
2023/12/10 00:27:37;;;;;;;;;2.33;1.00;;;;;10.61;77.71;100761.53;5076492;28;45470;-47
2023/12/10 00:30:04;;;;;;;;;6.67;2.67;;;;;10.61;77.77;100764.19;5076948;28;45274;-41
2023/12/10 00:32:29;;;;;;;;;2.33;1.00;;;;;10.57;77.88;100750.34;5076538;28;46410;-40
2023/12/10 00:34:55;;;;;;;;;4.33;2.00;;;;;10.57;77.68;100762.81;5076423;28;45499;-50
2023/12/10 00:37:20;;;;;;;;;1.33;0.33;;;;;10.52;77.89;100757.94;5076800;28;45468;-45
2023/12/10 00:39:45;;;;;;;;;7.67;1.00;;;;;10.56;77.66;100769.97;5076791;28;45319;-50
2023/12/10 00:42:11;;;;;;;;;2.00;2.00;;;;;10.57;78.14;100776.13;5076574;28;45675;-48
2023/12/10 00:44:37;;;;;;;;;6.33;2.00;;;;;10.56;77.99;100771.78;5076268;28;45542;-46
2023/12/10 00:47:02;;;;;;;;;3.67;2.33;;;;;10.55;77.95;100773.63;5076688;28;45652;-50
2023/12/10 00:49:27;;;;;;;;;2.33;2.00;;;;;10.55;78.09;100786.06;5076591;28;45488;-45
2023/12/10 00:51:53;;;;;;;;;7.00;2.00;;;;;10.49;78.13;100771.50;5076291;28;45416;-46
2023/12/10 00:54:18;;;;;;;;;5.33;1.00;;;;;10.48;77.99;100777.81;5076372;28;45327;-40
2023/12/10 00:56:43;;;;;;;;;4.33;1.00;;;;;10.51;78.16;100792.66;5058217;28;45625;-42
2023/12/10 00:59:09;;;;;;;;;1.67;1.00;;;;;10.51;78.49;100800.66;5076492;28;45401;-45
2023/12/10 01:01:34;;;;;;;;;5.00;1.67;;;;;10.37;78.32;100759.41;5058088;28;45355;-40
2023/12/10 01:03:59;;;;;;;;;8.33;2.00;;;;;10.47;78.09;100792.13;5075834;28;45317;-43
2023/12/10 01:06:25;;;;;;;;;2.67;2.00;;;;;10.49;78.49;100801.63;5076328;28;45371;-44
2023/12/10 01:08:50;;;;;;;;;2.00;1.33;;;;;10.39;78.37;100789.34;5058297;28;45448;-42
2023/12/10 01:11:16;;;;;;;;;3.00;2.00;;;;;10.47;77.99;100810.72;5075927;28;46005;-40
2023/12/10 01:13:41;;;;;;;;;4.67;1.33;;;;;10.47;78.36;100814.22;5076029;28;45321;-41
2023/12/10 01:16:07;;;;;;;;;5.00;1.00;;;;;10.46;78.07;100820.53;5076201;28;45312;-40
2023/12/10 01:18:33;;;;;;;;;4.00;2.00;;;;;10.43;77.87;100828.78;5076492;28;45374;-41
2023/12/10 01:20:58;;;;;;;;;3.00;2.00;;;;;10.44;78.32;100848.25;5075770;28;46104;-41
2023/12/10 01:23:24;;;;;;;;;4.00;1.00;;;;;10.39;78.21;100837.19;5075809;28;45431;-39
2023/12/10 01:25:49;;;;;;;;;1.67;1.67;;;;;10.44;78.31;100850.91;5077436;28;45386;-41
2023/12/10 01:28:15;;;;;;;;;3.00;0.33;;;;;10.43;78.70;100860.69;5079399;28;45615;-41
2023/12/10 01:30:40;;;;;;;;;6.67;5.00;;;;;10.42;78.67;100866.19;5079362;28;45581;-41
2023/12/10 01:33:05;;;;;;;;;10.33;3.00;;;;;10.39;78.78;100861.13;5079364;28;45387;-41
2023/12/10 01:35:31;;;;;;;;;3.33;2.00;;;;;10.37;78.69;100874.59;5079471;28;45681;-39
2023/12/10 01:37:56;;;;;;;;;11.00;1.00;;;;;10.38;79.03;100883.41;5079640;28;45267;-39
2023/12/10 01:40:22;;;;;;;;;7.00;2.33;;;;;10.37;79.33;100877.25;5079469;28;46105;-40
2023/12/10 01:42:48;;;;;;;;;3.67;1.00;;;;;10.35;79.03;100895.16;5079111;28;45442;-40
2023/12/10 01:45:14;;;;;;;;;1.67;1.67;;;;;10.27;79.02;100880.88;5079317;28;45417;-42
2023/12/10 01:47:42;;;;;;;;;4.33;2.67;;;;;10.36;78.88;100882.69;5079503;28;45396;-41
2023/12/10 01:50:12;;;;;;;;;7.00;1.00;;;;;10.35;79.12;100886.34;5079109;28;46941;-41
2023/12/10 01:52:42;;;;;;;;;2.00;2.00;;;;;10.34;79.37;100887.31;5078815;28;45348;-44
2023/12/10 01:55:11;;;;;;;;;4.00;2.00;;;;;10.31;79.12;100891.09;5079264;28;45303;-41
2023/12/10 01:57:37;;;;;;;;;5.00;3.00;;;;;10.29;79.38;100884.25;5078938;28;45178;-40
2023/12/10 02:00:07;;;;;;;;;7.67;3.33;;;;;10.28;79.10;100894.06;5078604;28;45655;-44
2023/12/10 02:02:36;;;;;;;;;5.67;5.33;;;;;10.26;79.60;100879.22;5078810;28;45285;-41
2023/12/10 02:05:05;;;;;;;;;3.33;1.00;;;;;10.22;79.37;100876.78;5078989;28;45335;-38
2023/12/10 02:07:30;;;;;;;;;6.00;1.00;;;;;10.24;79.90;100890.84;5060972;28;45518;-41
2023/12/10 02:09:55;;;;;;;;;2.33;2.00;;;;;10.19;80.31;100870.91;5078370;28;46188;-42
2023/12/10 02:12:21;;;;;;;;;3.67;1.33;;;;;10.19;79.87;100865.59;5078740;28;45367;-41
2023/12/10 02:14:47;;;;;;;;;3.00;1.00;;;;;10.18;79.95;100891.34;5078716;28;45393;-40
2023/12/10 02:17:12;;;;;;;;;2.33;1.67;;;;;10.18;79.96;100895.81;5078866;28;45292;-39
2023/12/10 02:19:37;;;;;;;;;6.67;4.67;;;;;10.12;80.53;100902.56;5078597;28;47305;-42
2023/12/10 02:22:04;;;;;;;;;6.00;1.00;;;;;10.13;80.15;100911.38;5078638;28;45236;-42
2023/12/10 02:24:42;;;;;;;;;7.67;2.00;;;;;10.10;80.10;100906.31;5078890;28;45257;-40
2023/12/10 02:27:08;;;;;;;;;4.33;1.33;;;;;10.09;80.85;100900.16;5078616;28;45450;-40
2023/12/10 02:29:33;;;;;;;;;6.67;2.33;;;;;10.09;80.43;100908.13;5078036;28;45447;-41
2023/12/10 02:31:58;;;;;;;;;13.33;7.33;;;;;10.09;80.65;100902.00;5078263;28;45265;-40
2023/12/10 02:34:24;;;;;;;;;6.00;2.00;;;;;10.08;80.32;100909.13;5078253;28;45476;-41
2023/12/10 02:36:50;;;;;;;;;3.00;3.00;;;;;10.08;80.39;100911.78;5077830;28;45422;-41
2023/12/10 02:39:15;;;;;;;;;8.00;2.00;;;;;10.06;80.70;100919.03;5077271;28;45402;-40
2023/12/10 02:41:40;;;;;;;;;6.00;3.00;;;;;10.07;80.48;100926.06;5078077;28;45390;-41
2023/12/10 02:44:06;;;;;;;;;8.00;1.00;;;;;10.08;80.79;100932.22;5078365;28;45431;-47
2023/12/10 02:46:31;;;;;;;;;4.00;2.00;;;;;10.06;80.70;100931.50;5078546;28;45370;-40
2023/12/10 02:48:57;;;;;;;;;7.00;1.00;;;;;10.07;80.55;100930.50;5078335;28;45393;-40
2023/12/10 02:51:22;;;;;;;;;2.67;1.00;;;;;10.07;80.48;100920.75;5078118;28;45330;-40
2023/12/10 02:53:47;;;;;;;;;6.67;4.33;;;;;10.06;80.73;100937.66;5078262;28;45711;-40
2023/12/10 02:56:13;;;;;;;;;3.00;2.67;;;;;10.05;80.89;100924.50;5078242;28;45376;-41
2023/12/10 02:58:38;;;;;;;;;5.67;2.00;;;;;10.04;80.65;100928.16;5077778;28;45474;-42
2023/12/10 03:01:04;;;;;;;;;8.00;4.33;;;;;10.05;80.82;100937.81;5078025;28;45240;-49
2023/12/10 03:03:29;;;;;;;;;9.67;2.67;;;;;10.04;80.80;100944.94;5077873;28;45483;-40
2023/12/10 03:05:56;;;;;;;;;2.00;2.00;;;;;10.02;80.78;100941.56;5078244;28;45182;-39
2023/12/10 03:08:21;;;;;;;;;9.67;2.67;;;;;10.05;80.63;100957.25;5076885;28;45291;-49
2023/12/10 03:10:47;;;;;;;;;2.00;1.67;;;;;10.07;80.87;100957.97;5077741;28;45409;-48
2023/12/10 03:13:12;;;;;;;;;6.33;2.67;;;;;10.14;80.75;100971.53;5077912;28;45418;-43
2023/12/10 03:15:37;;;;;;;;;5.00;2.33;;;;;10.20;80.43;100979.78;5078126;28;45432;-49
2023/12/10 03:18:05;;;;;;;;;6.67;2.00;;;;;10.28;80.27;100988.91;5078750;28;46040;-48
2023/12/10 03:20:30;;;;;;;;;4.33;1.33;;;;;10.29;80.33;100980.81;5078696;28;45443;-46
2023/12/10 03:22:56;;;;;;;;;5.00;1.00;;;;;10.32;80.16;100985.00;5078858;28;45389;-51
2023/12/10 03:25:21;;;;;;;;;1.33;1.00;;;;;10.33;80.33;100978.72;5078550;28;45378;-52
2023/12/10 03:27:47;;;;;;;;;2.67;1.00;;;;;10.36;80.18;100987.22;5078273;28;46257;-52
2023/12/10 03:30:12;;;;;;;;;1.67;1.00;;;;;10.39;80.04;100992.28;5078705;28;45349;-48
2023/12/10 03:32:37;;;;;;;;;1.33;1.00;;;;;10.41;80.00;101005.47;5077841;28;45504;-49
2023/12/10 03:35:03;;;;;;;;;1.33;1.00;;;;;10.37;80.32;100996.91;5077535;28;45268;-48
2023/12/10 03:37:29;;;;;;;;;6.67;2.00;;;;;10.40;80.00;101003.75;5077253;28;45297;-48
2023/12/10 03:39:54;;;;;;;;;6.00;2.67;;;;;10.05;80.29;100943.94;5076994;28;45469;-47
2023/12/10 03:42:20;;;;;;;;;2.00;1.00;;;;;10.37;80.30;101001.41;5077512;28;45285;-46
2023/12/10 03:44:46;;;;;;;;;7.00;2.00;;;;;10.28;80.14;100995.09;5077466;28;45292;-47
2023/12/10 03:47:11;;;;;;;;;1.00;1.00;;;;;10.35;80.45;101012.16;5077163;28;46007;-49
2023/12/10 03:49:36;;;;;;;;;5.00;2.00;;;;;10.33;80.48;101031.91;5076887;28;45355;-48
2023/12/10 03:52:02;;;;;;;;;3.00;1.33;;;;;10.32;80.90;101033.69;5076775;28;45236;-47
2023/12/10 03:54:27;;;;;;;;;10.00;2.00;;;;;10.29;80.92;101049.09;5077433;28;45304;-50
2023/12/10 03:56:53;;;;;;;;;5.00;2.00;;;;;10.29;81.18;101039.31;5077042;28;46150;-48
2023/12/10 03:59:18;;;;;;;;;1.33;0.00;;;;;10.28;81.13;101047.41;5076953;28;45542;-43
2023/12/10 04:01:43;;;;;;;;;7.00;0.00;;;;;10.28;81.10;101040.28;5076948;28;45334;-47
2023/12/10 04:04:10;;;;;;;;;5.33;2.67;;;;;10.30;81.12;101025.03;5077020;28;45246;-45
2023/12/10 04:06:42;;;;;;;;;5.67;2.00;;;;;10.33;81.04;101024.75;5077119;28;46227;-47
2023/12/10 04:09:08;;;;;;;;;3.67;1.00;;;;;10.33;80.97;101019.44;5076767;28;45372;-48
2023/12/10 04:11:33;;;;;;;;;10.00;4.33;;;;;10.28;81.16;101023.47;5076969;28;45545;-47
2023/12/10 04:13:59;;;;;;;;;8.33;4.33;;;;;10.35;81.05;101028.09;5077072;28;45570;-48
2023/12/10 04:16:29;;;;;;;;;3.00;1.00;;;;;10.36;80.91;101028.94;5076597;28;45317;-51
2023/12/10 04:18:54;;;;;;;;;1.67;1.67;;;;;10.33;81.15;101029.25;5076871;28;45708;-51
2023/12/10 04:21:21;;;;;;;;;8.00;1.67;;;;;10.18;80.90;101004.81;5077011;28;45499;-48
2023/12/10 04:23:46;;;;;;;;;2.33;1.67;;;;;10.24;81.31;101023.78;5076778;28;45372;-51
2023/12/10 04:26:12;;;;;;;;;6.00;3.00;;;;;10.24;81.61;101026.44;5076625;28;45352;-46
2023/12/10 04:28:41;;;;;;;;;2.67;2.00;;;;;10.23;81.29;101027.34;5076412;28;45339;-52
2023/12/10 04:31:06;;;;;;;;;1.33;1.00;;;;;10.21;81.65;101025.81;5076655;28;45378;-51
2023/12/10 04:33:33;;;;;;;;;0.67;0.67;;;;;10.18;81.72;101031.41;5076919;28;45501;-51
2023/12/10 04:35:58;;;;;;;;;3.00;2.67;;;;;10.16;81.82;101039.53;5076380;28;47045;-50
2023/12/10 04:38:23;;;;;;;;;2.33;0.33;;;;;10.14;82.08;101043.28;5076579;28;45289;-52
2023/12/10 04:40:49;;;;;;;;;3.67;2.67;;;;;10.11;82.03;101040.91;5076680;28;45338;-51
2023/12/10 04:43:14;;;;;;;;;4.67;2.33;;;;;10.05;82.35;101039.63;5076762;28;45276;-51
2023/12/10 04:45:41;;;;;;;;;4.67;1.00;;;;;10.05;82.72;101038.81;5058005;28;46017;-50
2023/12/10 04:48:06;;;;;;;;;14.00;3.00;;;;;10.02;82.44;101033.75;5076488;28;45359;-51
2023/12/10 04:50:31;;;;;;;;;1.67;1.00;;;;;9.99;82.63;101032.22;5076437;28;46043;-49
2023/12/10 04:52:57;;;;;;;;;3.67;1.33;;;;;9.99;82.67;101029.56;5076766;28;45391;-48
2023/12/10 04:55:22;;;;;;;;;3.00;2.00;;;;;9.95;82.57;101039.63;5057942;28;47059;-48
2023/12/10 04:57:48;;;;;;;;;6.00;3.00;;;;;9.97;82.78;101028.84;5076551;28;45232;-49
2023/12/10 05:00:14;;;;;;;;;11.00;3.67;;;;;9.95;82.72;101044.09;5076627;28;45398;-47
2023/12/10 05:02:39;;;;;;;;;8.67;2.33;;;;;9.87;82.86;101035.97;5080002;28;45516;-48
2023/12/10 05:05:07;;;;;;;;;2.67;1.33;;;;;9.95;82.94;101054.72;5079809;28;46121;-47
2023/12/10 05:07:33;;;;;;;;;5.00;2.00;;;;;9.97;82.79;101053.59;5079878;28;45214;-51
2023/12/10 05:09:58;;;;;;;;;3.00;1.00;;;;;9.99;82.98;101051.66;5079863;28;45445;-47
2023/12/10 05:12:23;;;;;;;;;1.00;1.00;;;;;10.01;82.43;101054.16;5079660;28;45562;-52
2023/12/10 05:14:49;;;;;;;;;4.33;3.00;;;;;10.07;82.91;101068.72;5079657;28;45998;-49
2023/12/10 05:17:14;;;;;;;;;4.33;2.00;;;;;10.11;82.40;101078.13;5079568;28;45379;-47
2023/12/10 05:19:39;;;;;;;;;5.00;2.33;;;;;10.16;82.28;101074.09;5079572;28;45823;-51
2023/12/10 05:22:05;;;;;;;;;2.00;1.00;;;;;10.15;82.15;101064.41;5079986;28;45382;-51
2023/12/10 05:24:30;;;;;;;;;7.33;3.00;;;;;10.19;81.74;101071.13;5079226;28;45414;-51
2023/12/10 05:26:55;;;;;;;;;2.00;2.00;;;;;10.18;82.07;101068.63;5079444;28;45264;-52
2023/12/10 05:29:21;;;;;;;;;6.00;2.33;;;;;10.16;82.02;101066.13;5079301;28;45277;-50
2023/12/10 05:31:46;;;;;;;;;4.33;2.00;;;;;10.16;81.73;101066.13;5079424;28;45437;-50
2023/12/10 05:34:11;;;;;;;;;3.00;2.67;;;;;10.13;82.32;101070.84;5079294;28;46918;-50
2023/12/10 05:36:37;;;;;;;;;2.67;1.33;;;;;10.16;81.94;101079.41;5079490;28;45249;-52
2023/12/10 05:39:03;;;;;;;;;5.67;1.33;;;;;10.15;82.01;101091.00;5079619;28;45293;-52
2023/12/10 05:41:28;;;;;;;;;9.00;2.00;;;;;10.12;82.16;101088.63;5079672;28;45461;-47
2023/12/10 05:43:54;;;;;;;;;12.33;5.67;;;;;10.11;82.11;101080.78;5079065;28;46970;-49
2023/12/10 05:46:19;;;;;;;;;2.00;0.00;;;;;10.14;82.20;101091.97;5079105;28;45417;-51
2023/12/10 05:48:45;;;;;;;;;5.67;1.00;;;;;10.14;82.45;101094.63;5061059;28;45478;-51
2023/12/10 05:51:10;;;;;;;;;4.33;2.00;;;;;9.78;82.13;101045.56;5079324;28;45395;-46
2023/12/10 05:53:36;;;;;;;;;3.00;1.33;;;;;10.15;82.36;101095.47;5079007;28;45470;-48
2023/12/10 05:56:01;;;;;;;;;6.00;3.67;;;;;10.12;82.43;101091.28;5079072;28;45416;-48
2023/12/10 05:58:26;;;;;;;;;1.00;1.00;;;;;10.09;82.38;101091.56;5079208;28;45398;-51
2023/12/10 06:00:52;;;;;;;;;3.33;2.00;;;;;10.08;82.53;101097.00;5079097;28;45402;-44
2023/12/10 06:03:17;;;;;;;;;4.00;2.00;;;;;10.08;82.44;101103.16;5078713;28;45433;-43
2023/12/10 06:05:43;;;;;;;;;12.00;2.00;;;;;9.98;82.34;101089.81;5078727;28;45465;-47
2023/12/10 06:08:09;;;;;;;;;4.67;2.67;;;;;10.09;82.47;101090.72;5078810;28;45501;-48
2023/12/10 06:10:35;;;;;;;;;7.67;3.33;;;;;10.11;82.54;101099.38;5079309;28;45475;-49
2023/12/10 06:13:00;;;;;;;;;7.00;2.00;;;;;10.10;82.49;101098.53;5078374;28;45360;-48
2023/12/10 06:15:26;;;;;;;;;2.67;1.33;;;;;10.14;82.63;101097.28;5078725;28;45422;-51
2023/12/10 06:17:51;;;;;;;;;5.33;1.00;;;;;10.14;82.18;101107.09;5078713;28;45460;-48
2023/12/10 06:20:16;;;;;;;;;8.33;1.33;;;;;10.05;82.13;101091.97;5078874;28;45285;-47
2023/12/10 06:22:42;;;;;;;;;3.00;1.00;;;;;10.12;82.44;101107.25;5078150;28;46202;-46
2023/12/10 06:25:08;;;;;;;;;3.00;2.00;;;;;10.12;82.21;101106.41;5078635;28;45443;-45
2023/12/10 06:27:33;;;;;;;;;7.33;3.00;;;;;10.09;82.43;101106.66;5078692;28;45455;-45
2023/12/10 06:29:58;;;;;;;;;7.67;2.00;;;;;10.01;82.14;101096.69;5078704;28;45571;-40
2023/12/10 06:32:24;;;;;;;;;3.00;2.33;;;;;10.10;82.20;101103.84;5078214;28;45363;-45
2023/12/10 06:34:50;;;;;;;;;5.33;1.33;;;;;10.07;82.26;101101.50;5078499;28;45394;-46
2023/12/10 06:37:15;;;;;;;;;7.00;2.00;;;;;10.10;82.50;101111.84;5078278;28;45362;-47
2023/12/10 06:39:41;;;;;;;;;6.00;1.00;;;;;10.13;82.07;101110.72;5078808;28;45308;-45
2023/12/10 06:42:06;;;;;;;;;3.00;2.67;;;;;10.02;82.20;101092.22;5078342;28;45499;-38
2023/12/10 06:44:34;;;;;;;;;2.67;2.00;;;;;10.13;82.32;101110.72;5078088;28;45532;-47
2023/12/10 06:47:00;;;;;;;;;5.67;2.67;;;;;10.12;82.20;101117.88;5078127;28;45331;-42
2023/12/10 06:49:25;;;;;;;;;3.00;1.67;;;;;10.09;82.27;101122.63;5078364;28;45190;-44
2023/12/10 06:51:50;;;;;;;;;6.67;4.33;;;;;10.14;82.76;101126.53;5078208;28;45958;-46
2023/12/10 06:54:16;;;;;;;;;8.33;1.67;;;;;10.07;82.27;101104.16;5078075;28;45268;-47
2023/12/10 06:56:41;;;;;;;;;7.33;4.00;;;;;10.20;82.28;101118.03;5077918;28;45724;-48
2023/12/10 06:59:07;;;;;;;;;2.00;2.00;;;;;10.22;81.82;101124.06;5078246;28;45374;-44
2023/12/10 07:01:37;;;;;;;;;5.67;1.33;;;;;10.18;82.27;101127.94;5077867;28;45416;-44
2023/12/10 07:04:04;;;;;;;;;3.67;2.00;;;;;10.15;82.47;101138.84;5077631;28;45462;-49
2023/12/10 07:06:30;;;;;;;;;9.00;2.00;;;;;10.05;82.51;101124.69;5078110;28;45414;-48
2023/12/10 07:08:55;;;;;;;;;2.00;2.00;;;;;10.10;82.42;101126.94;5078223;28;45416;-47
2023/12/10 07:11:21;;;;;;;;;5.67;2.33;;;;;10.06;82.71;101125.53;5077748;28;45362;-45
2023/12/10 07:13:48;;;;;;;;;2.33;1.00;;;;;10.07;82.68;101125.41;5077657;28;45387;-47
2023/12/10 07:16:14;;;;;;;;;3.67;2.33;;;;;10.10;82.63;101127.78;5077773;28;45460;-48
2023/12/10 07:18:39;;;;;;;;;6.00;2.67;;;;;10.13;82.60;101134.66;5077796;28;45340;-46
2023/12/10 07:21:05;;;;;;;;;5.00;2.00;;;;;10.17;82.68;101130.75;5077476;28;45449;-49
2023/12/10 07:23:30;;;;;;;;;3.67;2.00;;;;;10.16;82.18;101129.91;5076943;28;45296;-46
2023/12/10 07:25:55;;;;;;;;;8.33;5.67;;;;;10.17;82.25;101136.91;5077635;28;45690;-45
2023/12/10 07:28:21;;;;;;;;;5.67;2.00;;;;;10.16;82.59;101135.25;5077357;28;45371;-48
2023/12/10 07:30:46;;;;;;;;;10.67;3.00;;;;;10.12;82.47;101128.50;5077583;28;46206;-44
2023/12/10 07:33:12;;;;;;;;;2.67;2.00;;;;;10.16;82.72;101139.72;5077312;28;45430;-47
2023/12/10 07:35:37;;;;;;;;;3.33;1.67;;;;;10.17;82.48;101141.38;5077659;28;45351;-48
2023/12/10 07:38:03;;;;;;;;;6.33;2.00;;;;;10.20;82.47;101151.78;5077635;28;45467;-45
2023/12/10 07:40:28;;;;;;;;;3.00;2.00;;;;;10.19;82.52;101140.25;5077365;28;46049;-44
2023/12/10 07:42:54;;;;;;;;;3.00;2.00;;;;;10.23;82.36;101135.53;5077356;28;45548;-45
2023/12/10 07:45:20;;;;;;;;;2.00;2.00;;;;;10.27;82.86;101136.97;5077337;28;45394;-40
2023/12/10 07:47:45;;;;;;;;;7.33;3.00;;;;;10.31;82.47;101140.22;5077374;28;45415;-44
2023/12/10 07:50:10;;;;;;;;;5.33;2.00;;;;;10.32;82.49;101142.72;5077035;28;46214;-42
2023/12/10 07:52:36;;;;;;;;;10.00;3.00;;;;;10.35;82.12;101138.97;5077126;28;45333;-43
2023/12/10 07:55:02;;;;;;;;;2.00;2.00;;;;;10.37;82.18;101139.69;5077401;28;45451;-42
2023/12/10 07:57:28;;;;;;;;;5.00;3.00;;;;;10.36;82.20;101140.63;5077483;28;45288;-42
2023/12/10 07:59:53;;;;;;;;;6.00;5.00;;;;;10.38;82.19;101136.03;5076916;28;45581;-41
2023/12/10 08:02:18;;;;;;;;;7.67;3.00;;;;;10.38;82.28;101134.22;5076442;28;45391;-41
2023/12/10 08:04:44;;;;;;;;;3.00;2.33;;;;;10.39;82.36;101135.06;5077211;28;45338;-42
2023/12/10 08:07:09;;;;;;;;;7.33;2.67;;;;;10.38;82.38;101128.91;5077290;28;45503;-40
2023/12/10 08:09:34;;;;;;;;;8.00;2.00;;;;;10.38;82.06;101122.75;5076766;28;46296;-40
2023/12/10 08:12:00;;;;;;;;;3.00;2.00;;;;;10.39;82.35;101125.25;5077081;28;45326;-42
2023/12/10 08:14:27;;;;;;;;;6.00;3.33;;;;;10.38;82.47;101126.25;5077011;28;45323;-43
2023/12/10 08:16:53;;;;;;;;;6.00;2.67;;;;;10.29;82.57;101111.09;5077126;28;45392;-42
2023/12/10 08:19:18;;;;;;;;;2.00;1.00;;;;;10.35;82.71;101121.19;5076412;28;45581;-41
2023/12/10 08:21:43;;;;;;;;;7.33;2.67;;;;;10.36;82.60;101108.72;5075736;28;45371;-44
2023/12/10 08:24:09;;;;;;;;;10.00;3.00;;;;;10.36;82.63;101111.38;5076927;28;45403;-42
2023/12/10 08:26:34;;;;;;;;;6.00;2.00;;;;;10.36;82.70;101109.56;5077050;28;45487;-43
2023/12/10 08:29:00;;;;;;;;;5.00;2.00;;;;;10.37;82.83;101111.25;5076360;28;45368;-41
2023/12/10 08:31:25;;;;;;;;;7.00;2.67;;;;;10.38;82.87;101114.75;5076540;28;45346;-43
2023/12/10 08:33:51;;;;;;;;;3.00;3.00;;;;;10.39;82.83;101127.06;5076585;28;45221;-43
2023/12/10 08:36:16;;;;;;;;;5.00;2.67;;;;;10.38;82.79;101128.91;5079117;28;45326;-45
2023/12/10 08:38:41;;;;;;;;;7.00;3.00;;;;;10.39;82.61;101129.72;5080008;28;46329;-42
2023/12/10 08:41:07;;;;;;;;;8.00;2.00;;;;;10.39;82.97;101125.25;5079927;28;45362;-45
2023/12/10 08:43:33;;;;;;;;;6.00;3.67;;;;;10.40;82.90;101118.09;5080046;28;45354;-41
2023/12/10 08:45:58;;;;;;;;;9.67;3.33;;;;;10.40;83.04;101126.09;5080207;28;45540;-43
2023/12/10 08:48:23;;;;;;;;;2.00;1.00;;;;;10.38;82.95;101131.56;5079273;28;46735;-44
2023/12/10 08:50:49;;;;;;;;;6.00;3.00;;;;;10.34;83.03;101121.31;5079990;28;45503;-45
2023/12/10 08:53:14;;;;;;;;;7.00;3.00;;;;;10.35;83.33;101115.03;5080142;28;45671;-46
2023/12/10 08:55:40;;;;;;;;;8.67;1.67;;;;;10.39;83.51;101111.94;5079939;28;45510;-43
2023/12/10 08:58:05;;;;;;;;;1.00;1.00;;;;;10.38;83.14;101112.09;5079686;28;47006;-41
2023/12/10 09:00:30;;;;;;;;;7.33;4.33;;;;;10.41;83.35;101111.84;5079055;28;45505;-40
2023/12/10 09:02:56;;;;;;;;;6.33;3.00;;;;;10.40;83.39;101110.13;5079622;28;45334;-40
2023/12/10 09:05:21;;;;;;;;;6.67;2.00;;;;;10.43;83.79;101112.53;5080127;28;45336;-41
2023/12/10 09:07:46;;;;;;;;;13.67;3.33;;;;;10.46;83.52;101109.59;5079284;28;46005;-41
2023/12/10 09:10:12;;;;;;;;;7.67;6.00;;;;;10.50;83.56;101095.06;5079644;28;45335;-41
2023/12/10 09:12:37;;;;;;;;;8.67;7.00;;;;;10.53;83.38;101092.09;5079873;28;45417;-42
2023/12/10 09:15:03;;;;;;;;;8.67;6.33;;;;;10.53;83.65;101094.75;5077123;27;45412;-43
2023/12/10 09:17:29;;;;;;;;;5.00;4.33;;;;;10.56;84.13;101088.31;5098714;27;46289;-41
2023/12/10 09:19:54;;;;;;;;;5.67;2.33;;;;;10.58;84.03;101097.03;5098623;27;45505;-42
2023/12/10 09:22:19;;;;;;;;;6.00;5.33;;;;;10.60;83.73;101084.41;5098227;27;45496;-41
2023/12/10 09:24:45;;;;;;;;;9.67;6.00;;;;;10.62;83.63;101087.75;5099963;27;45253;-50
2023/12/10 09:27:10;;;;;;;;;9.33;6.33;;;;;10.64;83.71;101078.69;5099163;27;46788;-41
2023/12/10 09:29:41;;;;;;;;;5.00;5.00;;;;;10.67;83.52;101062.44;5097936;27;45513;-43
2023/12/10 09:32:09;;;;;;;;;7.33;6.00;;;;;10.70;83.71;101055.97;5097911;27;45471;-45
2023/12/10 09:34:35;;;;;;;;;11.00;6.00;;;;;10.70;83.98;101055.97;5098382;27;45397;-41
2023/12/10 09:37:01;;;;;;;;;12.00;7.33;;;;;10.72;83.82;101051.38;5098100;27;45990;-42
2023/12/10 09:39:27;;;;;;;;;11.67;7.67;;;;;10.72;83.75;101046.06;5098209;27;45429;-41
2023/12/10 09:41:55;;;;;;;;;10.00;4.00;;;;;10.88;83.99;101038.34;5098160;27;45221;-45
2023/12/10 09:44:21;;;;;;;;;7.00;3.00;;;;;10.90;83.22;101054.16;5098188;27;45759;-40
2023/12/10 09:46:46;;;;;;;;;6.00;5.67;;;;;10.84;83.54;101036.94;5097445;27;47143;-42
2023/12/10 09:49:13;;;;;;;;;7.00;5.00;;;;;10.97;83.20;101023.34;5097844;27;45437;-44
2023/12/10 09:51:39;;;;;;;;;15.67;7.67;;;;;10.99;83.18;101048.00;5098198;27;45441;-44
2023/12/10 09:54:05;;;;;;;;;14.33;6.67;;;;;10.89;82.82;101055.16;5097490;27;45368;-41
2023/12/10 09:56:30;;;;;;;;;6.00;3.67;;;;;10.83;83.85;101047.72;5097790;27;46891;-42
2023/12/10 09:58:55;;;;;;;;;7.33;6.00;;;;;10.91;83.61;101051.38;5097555;27;45325;-46
2023/12/10 10:01:21;;;;;;;;;5.33;2.67;;;;;11.16;82.93;101046.41;5079333;27;45681;-40
2023/12/10 10:03:46;;;;;;;;;7.33;4.00;;;;;11.37;82.12;101046.22;5097410;27;45394;-42
2023/12/10 10:06:11;;;;;;;;;4.00;3.67;;;;;11.36;81.71;101033.91;5097347;27;45402;-45
2023/12/10 10:08:37;;;;;;;;;5.33;3.00;;;;;11.32;81.70;101036.00;5097706;27;45336;-41
2023/12/10 10:11:03;;;;;;;;;6.67;4.00;;;;;11.25;81.33;101032.28;5097430;27;45348;-41
2023/12/10 10:13:28;;;;;;;;;5.33;3.00;;;;;11.16;81.90;101025.97;5097764;27;45199;-42
2023/12/10 10:15:54;;;;;;;;;3.00;3.00;;;;;11.19;81.96;101012.38;5096799;27;47282;-43
2023/12/10 10:18:20;;;;;;;;;10.33;4.00;;;;;11.17;82.01;101009.03;5097030;27;45365;-44
2023/12/10 10:20:46;;;;;;;;;7.33;5.67;;;;;11.04;81.88;100994.31;5079135;27;45335;-41
2023/12/10 10:23:14;;;;;;;;;10.67;5.33;;;;;11.06;82.52;101001.19;5097301;27;45462;-46
2023/12/10 10:25:40;;;;;;;;;9.00;3.00;;;;;11.06;82.45;100987.03;5097129;27;47178;-45
2023/12/10 10:28:11;;;;;;;;;8.00;2.00;;;;;11.16;81.98;100991.34;5055808;27;1155404;-39
2023/12/10 10:30:36;;;;;;;;;4.00;1.00;;;;;11.20;81.56;100975.91;5098570;27;45460;-40
2023/12/10 10:33:01;;;;;;;;;5.33;2.00;;;;;11.31;81.30;100985.56;5098639;27;45165;-39
2023/12/10 10:35:27;;;;;;;;;7.67;3.00;;;;;11.40;80.96;100974.88;5098204;27;45702;-42
2023/12/10 10:37:54;;;;;;;;;3.00;1.33;;;;;11.41;80.38;100968.56;5098271;27;45451;-40
2023/12/10 10:40:20;;;;;;;;;6.00;2.00;;;;;11.55;80.18;100966.41;5098710;27;45392;-39
2023/12/10 10:42:45;;;;;;;;;6.33;4.33;;;;;11.61;80.28;100968.47;5098764;27;45532;-39
2023/12/10 10:45:11;;;;;;;;;6.67;3.00;;;;;11.59;79.55;100949.16;5097942;27;45419;-43
2023/12/10 10:47:36;;;;;;;;;4.00;3.33;;;;;11.49;78.74;100931.38;5098329;27;45349;-43
2023/12/10 10:50:04;;;;;;;;;4.00;3.00;;;;;11.74;78.89;100932.47;5097369;27;45313;-47
2023/12/10 10:52:33;;;;;;;;;6.67;4.00;;;;;11.92;78.66;100929.88;5097961;27;45410;-45
2023/12/10 10:54:59;;;;;;;;;7.67;3.00;;;;;12.14;77.55;100917.94;5097873;27;45420;-47
2023/12/10 10:57:29;;;;;;;;;7.67;2.33;;;;;12.40;76.36;100902.00;5097503;27;45243;-40
2023/12/10 10:59:54;;;;;;;;;9.33;2.67;;;;;12.60;75.94;100907.13;5097198;27;45435;-41
2023/12/10 11:02:20;;;;;;;;;3.67;2.00;;;;;12.76;74.40;100903.75;5097920;27;45448;-46
2023/12/10 11:04:47;;;;;;;;;3.00;3.00;;;;;12.82;74.56;100919.16;5097596;27;45383;-44
2023/12/10 11:07:15;;;;;;;;;2.67;2.67;;;;;12.90;74.25;100911.19;5097620;27;45443;-46
2023/12/10 11:09:59;;;;;;;;;3.67;3.33;;;;;13.05;73.22;100888.22;5097706;27;45363;-44
2023/12/10 11:12:39;;;;;;;;;4.00;3.33;;;;;13.31;72.67;100895.38;5079168;27;45456;-41
2023/12/10 11:15:28;;;;;;;;;6.33;3.00;;;;;13.56;71.86;100885.63;5097216;27;45400;-42
2023/12/10 11:17:59;;;;;;;;;4.33;2.00;;;;;13.66;71.46;100892.50;5097293;27;45461;-42